Watts, Oklahoma
Current Conditions -  °F | °C
As of 8:55 PM on Sunday 23 Nov 2014 (Local Time) from KSLG Reporting Station
Overcast Overcast  
Wind Chill: 38°   Ceiling: 1000
Heat Index: 46°   Visibility: 8mi
Dew Point: 37°   Wind: 23mph
Humidity: 71%   Direction: 320°NW
Pressure: 29.46"   Gusts: 32mph
Location:  36.11°N, 94.57°W
Report Text: KSLG 240255Z AUTO 32020G28KT 8SM BKN010 OVC018 08/03 A2946 RMK AO1 52044
Loading
Personal Weather Stations






























Interactive Weather Map New forecast layout! Learn more

10-Day Weather Forecast

Advertisements
Track Severe Weather on mobile